Latest Weather Observations for Telfer

IDW60801

Issued at 9:05 pm WST Friday 24 October 2014 (issued every 30 minutes, with the page automatically refreshed every 10 minutes)

About weather observations | Map of weather stations | Latest weather observations for WA | Other Formats
Station Details ID: 013030 Name: TELFER AERO Lat: -21.71 Lon: 122.23 Height: 291.9 m
Data from the previous 72 hours. | See also: Recent months at Telfer
Date/Time
WST
Temp
°C
App
Temp
°C
Dew
Point
Rel
Hum
%
Delta-T
°C
Wind Press
QNH
hPa
Press
MSL
hPa
Rain
since 9 am
mm
Dir
 
Spd
km/h
Gust
km/h
Spd
kts
Gust
kts
24/09:00pm 32.9 29.9 7.7 21 14.1 NW 13 19 7 10 1012.5 1010.6 0.0
24/08:30pm 33.6 30.9 7.5 20 14.6 N 11 13 6 7 1012.0 1010.0 0.0
24/08:00pm 33.6 30.9 7.5 20 14.6 NE 11 13 6 7 1011.6 1009.6 0.0
24/07:30pm 35.1 32.7 7.2 18 15.6 NW 9 11 5 6 1011.2 1009.2 0.0
24/07:00pm 36.0 32.9 7.1 17 16.3 W 13 15 7 8 1010.8 1008.8 0.0
24/06:30pm 36.8 33.8 5.9 15 17.1 WSW 11 15 6 8 1010.2 1008.2 0.0
24/06:00pm 37.4 35.0 5.4 14 17.7 WNW 7 9 4 5 1009.6 1007.6 0.0
24/05:30pm 38.4 35.8 4.0 12 18.7 NNW 7 11 4 6 1009.2 1007.3 0.0
24/05:00pm 38.9 36.2 5.5 13 18.6 NNE 9 13 5 7 1009.0 1007.0 0.0
24/04:30pm 39.5 36.6 4.8 12 19.2 ENE 9 17 5 9 1008.9 1006.9 0.0
24/04:00pm 39.8 37.3 3.8 11 19.7 NNW 6 9 3 5 1008.8 1006.8 0.0
24/03:30pm 40.8 37.5 4.6 11 20.1 NNW 11 17 6 9 1009.0 1007.0 0.0
24/03:00pm 40.7 38.4 5.7 12 19.7 NNW 7 13 4 7 1009.2 1007.3 0.0
24/02:30pm 41.4 38.6 5.0 11 20.4 WSW 9 17 5 9 1009.4 1007.5 0.0
24/02:00pm 39.6 35.4 3.7 11 19.5 ENE 15 24 8 13 1009.9 1007.9 0.0
24/01:30pm 41.3 38.4 4.9 11 20.3 W 9 30 5 16 1010.2 1008.2 0.0
24/01:00pm 40.2 36.7 5.4 12 19.5 NNE 13 20 7 11 1010.7 1008.7 0.0
24/12:30pm 40.2 36.9 6.5 13 19.2 ESE 13 20 7 11 1011.0 1009.0 0.0
24/12:00pm 39.7 36.7 6.1 13 19.0 SE 11 17 6 9 1011.4 1009.4 0.0
24/11:30am 39.1 36.6 6.7 14 18.4 ENE 9 19 5 10 1011.9 1009.9 0.0
24/11:00am 38.0 34.8 6.9 15 17.6 E 13 30 7 16 1012.3 1010.4 0.0
24/10:30am 37.9 33.6 7.7 16 17.3 NE 20 30 11 16 1012.7 1010.8 0.0
24/10:00am 37.4 34.0 9.1 18 16.5 ESE 17 28 9 15 1013.0 1011.1 0.0
24/09:30am 36.4 34.5 9.1 19 15.9 NE 9 19 5 10 1013.4 1011.4 0.0
24/09:00am 34.0 33.4 11.8 26 13.3 NNW 6 9 3 5 1013.6 1011.6 0.0
24/08:30am 32.2 31.9 13.4 32 11.4 NW 7 9 4 5 1013.9 1011.9 0.0
24/08:00am 30.4 30.6 14.1 37 10.0 NNW 6 9 3 5 1014.1 1012.1 0.0
24/07:30am 29.0 29.4 14.8 42 8.7 NNW 6 9 3 5 1013.9 1011.9 0.0
24/07:00am 27.4 27.0 14.1 44 8.0 NNW 9 13 5 7 1013.7 1011.7 0.0
24/06:30am 26.5 26.1 12.9 43 8.0 N 7 13 4 7 1013.8 1011.8 0.0
24/06:00am 25.6 24.6 12.4 43 7.7 NNE 9 13 5 7 1013.8 1011.8 0.0
24/05:30am 24.9 23.4 11.8 44 7.5 NE 11 15 6 8 1013.7 1011.7 0.0
24/05:00am 24.9 25.3 12.5 46 7.2 NNE 2 11 1 6 1013.4 1011.4 0.0
24/04:30am 25.7 25.2 12.2 43 7.9 NNW 6 15 3 8 1013.2 1011.2 0.0
24/04:00am 28.2 26.9 11.3 35 9.8 W 9 13 5 7 1012.1 1010.1 0.0
24/03:30am 28.1 26.1 11.6 36 9.6 W 13 17 7 9 1011.6 1009.6 0.0
24/03:00am 27.1 26.1 13.4 42 8.2 N 11 15 6 8 1011.3 1009.3 0.0
24/02:30am 27.3 26.8 12.5 40 8.7 N 7 9 4 5 1011.2 1009.2 0.0
24/02:00am 30.0 28.6 11.0 31 11.1 W 9 11 5 6 1010.9 1008.9 0.0
24/01:30am 29.7 28.3 12.2 34 10.4 WSW 11 13 6 7 1011.0 1009.0 0.0
24/01:00am 29.9 29.4 11.9 33 10.6 W 6 9 3 5 1011.5 1009.5 0.0
24/12:30am 30.5 29.2 12.4 33 10.8 WSW 11 15 6 8 1011.8 1009.8 0.0
24/12:00am 29.8 29.4 14.0 38 9.6 W 9 13 5 7 1012.3 1010.4 0.0
 
Date/Time
WST
Temp
°C
App
Temp
°C
Dew
Point
Rel
Hum
%
Delta-T
°C
Wind Press
QNH
hPa
Press
MSL
hPa
Rain
since 9 am
mm
Dir
 
Spd
km/h
Gust
km/h
Spd
kts
Gust
kts
23/11:30pm 30.0 29.3 15.3 41 9.1 W 13 15 7 8 1012.5 1010.6 0.0
23/11:00pm 30.3 29.5 15.2 40 9.4 WNW 13 17 7 9 1013.0 1011.1 0.0
23/10:30pm 31.1 30.1 14.7 37 10.1 NW 13 17 7 9 1013.6 1011.6 0.0
23/10:00pm 32.1 30.1 12.8 30 11.6 NNE 15 20 8 11 1014.0 1012.0 0.0
23/09:30pm 33.1 31.7 11.0 26 13.0 NNW 9 19 5 10 1013.6 1011.6 0.0
23/09:00pm 33.8 31.6 5.4 17 15.4 NNW 6 13 3 7 1013.3 1011.3 0.0
23/08:30pm 33.5 30.7 5.1 17 15.3 N 9 13 5 7 1012.7 1010.8 0.0
23/08:00pm 34.5 29.6 5.0 16 15.9 SSE 20 24 11 13 1012.2 1010.3 0.0
23/07:30pm 34.3 33.1 6.6 18 15.3 E 2 15 1 8 1011.8 1009.8 0.0
23/07:00pm 35.3 34.3 5.7 16 16.3 CALM 0 0 0 0 1011.4 1009.4 0.0
23/06:30pm 35.4 34.4 5.8 16 16.3 CALM 0 0 0 0 1010.9 1008.9 0.0
23/06:00pm 36.6 33.3 4.8 14 17.3 N 11 17 6 9 1010.6 1008.6 0.0
23/05:30pm 37.6 34.8 3.4 12 18.3 NE 7 9 4 5 1010.1 1008.1 0.0
23/05:00pm 38.2 34.9 2.6 11 18.9 NNE 9 13 5 7 1009.8 1007.8 0.0
23/04:30pm 38.1 35.8 2.5 11 18.9 W 4 11 2 6 1009.6 1007.6 0.0
23/04:00pm 38.2 35.5 2.6 11 18.9 W 6 15 3 8 1009.6 1007.6 0.0
23/03:30pm 38.5 34.9 2.8 11 19.0 N 11 15 6 8 1009.7 1007.7 0.0
23/03:00pm 39.4 36.6 2.2 10 19.8 WNW 6 9 3 5 1009.8 1007.8 0.0
23/02:30pm 39.8 35.7 2.5 10 19.9 W 13 20 7 11 1009.8 1007.8 0.0
23/02:00pm 39.6 36.5 3.7 11 19.5 WSW 9 15 5 8 1010.1 1008.1 0.0
23/01:30pm 38.9 36.7 3.1 11 19.2 SE 4 20 2 11 1010.5 1008.5 0.0
23/01:00pm 38.6 32.9 2.9 11 19.1 SSE 22 32 12 17 1010.8 1008.8 0.0
23/12:30pm 40.1 35.9 4.0 11 19.8 E 15 30 8 16 1011.2 1009.2 0.0
23/12:00pm 39.1 33.1 3.3 11 19.3 SSE 24 37 13 20 1011.6 1009.6 0.0
23/11:30am 37.9 31.0 2.4 11 18.8 SE 28 41 15 22 1012.0 1010.0 0.0
23/11:00am 37.1 29.5 3.0 12 18.1 SE 32 39 17 21 1012.4 1010.5 0.0
23/10:30am 36.8 30.7 2.8 12 18.0 SE 24 30 13 16 1012.7 1010.8 0.0
23/10:00am 35.9 28.5 2.1 12 17.6 SSE 30 39 16 21 1012.7 1010.8 0.0
23/09:30am 36.4 29.5 2.4 12 17.8 SSE 28 39 15 21 1012.8 1010.9 0.0
23/09:00am 35.5 28.9 1.8 12 17.4 SSE 26 35 14 19 1012.7 1010.8 0.0
23/08:30am 35.3 29.0 1.6 12 17.3 S 24 35 13 19 1012.6 1010.7 0.0
23/08:00am 34.6 27.5 1.1 12 17.0 SSE 28 37 15 20 1012.5 1010.6 0.0
23/07:30am 33.0 27.5 0.9 13 16.1 SSE 19 26 10 14 1012.5 1010.6 0.0
23/07:00am 31.4 25.5 1.7 15 14.9 S 22 32 12 17 1012.1 1010.1 0.0
23/06:30am 30.0 25.9 4.6 20 13.3 S 15 22 8 12 1012.0 1010.0 0.0
23/06:00am 27.1 24.1 7.5 29 10.6 SSE 13 15 7 8 1011.5 1009.5 0.0
23/05:30am 28.5 25.2 6.6 25 11.8 S 13 19 7 10 1011.3 1009.3 0.0
23/05:00am 27.0 23.3 6.4 27 10.9 SE 15 17 8 9 1010.9 1008.9 0.0
23/04:30am 26.2 24.0 7.7 31 10.0 ENE 9 13 5 7 1010.5 1008.5 0.0
23/04:00am 28.0 25.9 5.6 24 11.8 SE 6 13 3 7 1010.3 1008.3 0.0
23/03:30am 26.8 24.7 8.3 31 10.1 WNW 9 11 5 6 1010.3 1008.3 0.0
23/03:00am 27.5 25.4 8.4 30 10.5 NW 9 13 5 7 1010.3 1008.3 0.0
23/02:30am 27.8 25.8 8.6 30 10.6 WNW 9 11 5 6 1010.4 1008.4 0.0
23/02:00am 28.1 26.2 8.9 30 10.7 NW 9 15 5 8 1010.5 1008.5 0.0
23/01:30am 29.1 26.7 8.7 28 11.4 N 11 13 6 7 1010.6 1008.6 0.0
23/01:00am 31.0 28.3 7.5 23 13.0 N 11 15 6 8 1010.7 1008.7 0.0
23/12:30am 32.2 30.2 7.1 21 13.9 NW 7 11 4 6 1011.2 1009.2 0.0
23/12:00am 33.2 28.9 7.2 20 14.5 WNW 19 22 10 12 1011.5 1009.5 0.0
 
Date/Time
WST
Temp
°C
App
Temp
°C
Dew
Point
Rel
Hum
%
Delta-T
°C
Wind Press
QNH
hPa
Press
MSL
hPa
Rain
since 9 am
mm
Dir
 
Spd
km/h
Gust
km/h
Spd
kts
Gust
kts
22/11:30pm 35.4 31.0 7.5 18 15.7 NW 20 32 11 17 1011.6 1009.6 0.0
22/11:00pm 33.6 28.9 5.2 17 15.3 WNW 19 22 10 12 1011.9 1009.9 0.0
22/10:30pm 33.8 30.5 4.5 16 15.6 NW 11 17 6 9 1012.3 1010.4 0.0
22/10:00pm 33.3 31.6 4.1 16 15.5 WNW 2 11 1 6 1012.4 1010.5 0.0
22/09:30pm 32.7 31.0 6.1 19 14.5 NNW 4 13 2 7 1012.4 1010.5 0.0
22/09:00pm 32.9 32.0 6.2 19 14.6 CALM 0 0 0 0 1012.4 1010.5 0.0
22/08:30pm 33.4 31.9 6.6 19 14.8 SSE 4 7 2 4 1012.4 1010.5 0.0
22/08:00pm 34.1 32.3 5.6 17 15.5 SW 4 7 2 4 1012.1 1010.1 0.0
22/07:30pm 34.9 32.5 5.4 16 16.1 W 7 41 4 22 1011.8 1009.8 0.0
22/07:00pm 35.4 33.1 5.8 16 16.3 NNW 7 9 4 5 1011.5 1009.5 0.0
22/06:30pm 35.8 33.6 5.1 15 16.7 N 6 9 3 5 1011.1 1009.1 0.0
22/06:00pm 37.0 34.8 5.1 14 17.5 N 6 7 3 4 1010.7 1008.7 0.0
22/05:30pm 38.2 35.4 5.0 13 18.3 NNW 9 13 5 7 1010.5 1008.5 0.0
22/05:00pm 38.9 35.6 4.4 12 18.9 N 11 15 6 8 1010.3 1008.3 0.0
22/04:30pm 39.2 35.7 3.4 11 19.3 N 11 15 6 8 1010.2 1008.2 0.0
22/04:00pm 39.3 35.3 4.7 12 19.1 N 15 22 8 12 1010.1 1008.1 0.0
22/03:30pm 39.9 35.3 3.9 11 19.7 NE 17 26 9 14 1010.2 1008.2 0.0
22/03:00pm 40.1 36.3 4.0 11 19.8 NNW 13 24 7 13 1010.2 1008.2 0.0
22/02:30pm 40.2 36.2 2.8 10 20.1 NNE 13 22 7 12 1010.4 1008.4 0.0
22/02:00pm 41.2 38.7 3.5 10 20.6 NNE 6 13 3 7 1010.6 1008.6 0.0
22/01:30pm 40.1 36.1 2.7 10 20.1 E 13 20 7 11 1011.1 1009.1 0.0
22/01:00pm 40.9 35.8 3.3 10 20.5 S 19 26 10 14 1011.5 1009.5 0.0
22/12:30pm 40.0 37.3 2.6 10 20.0 SW 6 13 3 7 1012.1 1010.1 0.0
22/12:00pm 39.7 33.9 2.4 10 19.9 SSE 22 26 12 14 1012.6 1010.7 0.0
22/11:30am 38.9 33.2 3.1 11 19.2 SSE 22 26 12 14 1013.0 1011.1 0.0
22/11:00am 37.8 33.3 2.3 11 18.7 SSE 15 20 8 11 1013.7 1011.7 0.0
22/10:30am 37.4 32.7 3.2 12 18.2 SSE 17 26 9 14 1014.0 1012.0 0.0
22/10:00am 35.9 30.8 3.2 13 17.3 SSE 19 24 10 13 1014.4 1012.4 0.0
22/09:30am 35.0 30.0 3.5 14 16.7 SE 19 28 10 15 1014.7 1012.7 0.0
22/09:00am 33.9 28.2 2.7 14 16.2 SE 22 30 12 16 1014.8 1012.8 0.0
22/08:30am 33.0 27.7 2.9 15 15.6 SE 20 26 11 14 1014.9 1012.9 0.0
22/08:00am 31.6 25.5 2.7 16 14.8 SE 24 32 13 17 1014.8 1012.8 0.0
22/07:30am 30.1 23.9 2.4 17 14.0 SE 24 32 13 17 1014.5 1012.5 0.0
22/07:00am 28.3 22.2 2.5 19 12.9 SE 24 30 13 16 1014.3 1012.3 0.0
22/06:30am 27.2 21.4 2.3 20 12.3 SSE 22 30 12 16 1014.1 1012.1 0.0
22/06:00am 26.9 21.1 2.1 20 12.2 SSE 22 28 12 15 1013.9 1011.9 0.0
22/05:30am 27.4 21.1 1.8 19 12.6 SSE 24 33 13 18 1013.7 1011.7 0.0
22/05:00am 25.2 20.3 2.0 22 11.3 SSE 17 19 9 10 1013.6 1011.6 0.0
22/04:30am 24.8 20.6 1.7 22 11.1 SSE 13 17 7 9 1013.4 1011.4 0.0
22/04:00am 24.2 20.4 1.8 23 10.8 SE 11 15 6 8 1013.2 1011.2 0.0
22/03:30am 27.0 23.8 0.7 18 12.6 ESE 7 11 4 6 1012.7 1010.8 0.0
22/03:00am 29.3 24.1 0.0 15 14.1 SW 17 20 9 11 1012.5 1010.6 0.0
22/02:30am 29.1 24.5 1.6 17 13.6 WSW 15 20 8 11 1012.6 1010.7 0.0
22/02:00am 29.0 24.7 0.7 16 13.8 W 13 17 7 9 1012.5 1010.6 0.0
22/01:30am 29.8 25.2 1.3 16 14.1 W 15 19 8 10 1012.7 1010.8 0.0
22/01:00am 30.3 26.0 0.8 15 14.5 W 13 17 7 9 1012.9 1011.0 0.0
22/12:30am 30.8 26.5 1.2 15 14.7 W 13 17 7 9 1013.4 1011.4 0.0
22/12:00am 31.4 26.8 1.7 15 14.9 WSW 15 20 8 11 1013.6 1011.6 0.0
 
Date/Time
WST
Temp
°C
App
Temp
°C
Dew
Point
Rel
Hum
%
Delta-T
°C
Wind Press
QNH
hPa
Press
MSL
hPa
Rain
since 9 am
mm
Dir
 
Spd
km/h
Gust
km/h
Spd
kts
Gust
kts
21/11:30pm 32.4 27.4 1.5 14 15.6 W 17 22 9 12 1014.0 1012.0 0.0
21/11:00pm 31.3 26.6 0.6 14 15.1 WSW 15 22 8 12 1014.4 1012.4 0.0
21/10:30pm 31.1 27.2 1.4 15 14.8 SW 11 13 6 7 1014.9 1012.9 0.0
21/10:00pm 30.6 26.9 0.1 14 14.8 SW 9 15 5 8 1015.2 1013.2 0.0
21/09:30pm 31.2 26.8 0.6 14 15.1 SW 13 15 7 8 1015.4 1013.5 0.0

Other Formats:

Comma delimited format used in spreadsheet applications
http://www.bom.gov.au/fwo/IDW60801/IDW60801.94319.axf

JavaScript Object Notation format (JSON) in row-major order
http://www.bom.gov.au/fwo/IDW60801/IDW60801.94319.json